Desert Hot Springs, CA (92241)

3:34 PM PDT on August 23, 2016 (GMT -0700)
| | Change Station

Elev -9999 ft 0.00 °N, 0.00 °E | Updated

Clear
Clear
98 °F
Feels Like 98 °F
N
16
Wind Variable Wind from WNW
Gusts mph

Today
High -- | Low -- °F
--% Chance of Precip.
Yesterday
High -- | Low -- °F
Precip. -- in
Pressure 29.88 in
Visibility 10.0 miles
Clouds Few 11000 ft
Dew Point 46 °F
Humidity 17%
Rainfall --
Snow Depth Not available.
6:13 AM 7:22 PM
Waning Gibbous, 64% visible
METAR KPSP 232153Z 00000KT 10SM FEW110 39/07 A2989 RMK AO2 SLP117 T03940067 $
Pressure 29.88 in
Visibility 10.0 miles
Clouds Few 11000 ft
Dew Point 46 °F
Humidity 17%
Rainfall --
Snow Depth Not available.
6:13 AM 7:22 PM
Waning Gibbous, 64% visible
METAR KPSP 232153Z 00000KT 10SM FEW110 39/07 A2989 RMK AO2 SLP117 T03940067 $

10-Day Weather Forecast

Almanac

Astronomy

Aug. 23, 2016 Rise Set
Actual Time
Civil Twilight
Nautical Twilight
Astronomical Twilight
Moon
Length of Visible Light
Length of Day
Tomorrow will be .
, % of the Moon is Illuminated

Today's Extremes

State Highs State Lows

Community

WunderPhotos

Upload Photos

1,934,486 photos uploaded!

WunderBlog® & News

Nearby

Air Quality

  Air Quality AQ Index Pollutant
Not available.

Snow Depth

Station Depth Elevation

Earthquake Activity

City Distance Mag. Time & Date
Minimum magnitude displayed is 2.5.

Coastal Water Temperatures

Place Temperature

Stations

Nearby Weather Stations

Station Location Temp. Windchill Dew Point Humidity Wind Precip. Elev Updated Type
                   

Watches & Warnings

There are currently no watches in effect.